Norfork, AR (72658)

4:56 PM CDT on September 04, 2015 (GMT -0500)
KARCALIC2 | | Change Station
CLOSE
Current Station
Personal Weather Station
Location: Calico Rock, AR
Elevation: 666 ft
Nearby Weather Stations

Elev 666 ft 36.10 °N, 92.23 °W | Updated 1 second ago

Clear
Clear
91.4 °F
Feels Like 94 °F
N
1.3
Wind Variable Wind from SSW
Gusts 7.6 mph

Today
High -- | Low -- °F
--% Chance of Precip.
Yesterday
High -- | Low -- °F
Precip. -- in
6:42 AM 7:32 PM
Waning Gibbous, 55% visible
Pressure 29.96 in
Visibility 9.0 miles
Clouds Scattered Clouds 5500 ft
Heat Index 94 °F
Dew Point 66 °F
Humidity 43%
Rainfall 0.00 in
Snow Depth Not available.
UV 3 out of 12
Pollen 10.20 out of 12
Air Quality Not available.
Flu Activity Not available.
METAR KBPK 042153Z AUTO 10005KT 9SM SCT055 32/19 A2999 RMK AO2 SLP143 T03220189
Pressure 29.96 in
Visibility 9.0 miles
Clouds Scattered Clouds 5500 ft
Heat Index 94 °F
Dew Point 66 °F
Humidity 43%
Rainfall 0.00 in
Snow Depth Not available.
UV 3 out of 12
Pollen 10.20 out of 12
Air Quality Not available.
Flu Activity Not available.
METAR KBPK 042153Z AUTO 10005KT 9SM SCT055 32/19 A2999 RMK AO2 SLP143 T03220189

10-Day Weather Forecast

×

Almanac

Astronomy

Sep. 04, 2015 Rise Set
Actual Time
Civil Twilight
Nautical Twilight
Astronomical Twilight
Moon
Length of Visible Light
Length of Day
Tomorrow will be .
, % of the Moon is Illuminated

Today's Extremes

State Highs State Lows

Community

WunderPhotos

Upload Photos

1,852,297 photos uploaded!

WunderBlogs® & News

Nearby

Air Quality

  Air Quality AQ Index Pollutant
Not available.

Snow Depth

Station Depth Elevation

Earthquake Activity

City Distance Mag. Time & Date
Minimum magnitude displayed is 2.5.

Coastal Water Temperatures

Place Temperature

Stations

Nearby Weather Stations

Station Location Temp. Windchill Dew Point Humidity Wind Precip. Elev Updated Type